sensor_id;sensor_type;location;lat;lon;timestamp;temperature;humidity
27619;DHT22;15039;50.830;4.730;2023-08-24T00:00:53;21.40;99.90
27619;DHT22;15039;50.830;4.730;2023-08-24T00:03:19;21.30;99.90
27619;DHT22;15039;50.830;4.730;2023-08-24T00:05:47;21.10;99.90
27619;DHT22;15039;50.830;4.730;2023-08-24T00:08:17;21.10;99.90
27619;DHT22;15039;50.830;4.730;2023-08-24T00:10:47;21.10;99.90
27619;DHT22;15039;50.830;4.730;2023-08-24T00:13:14;21.10;99.90
27619;DHT22;15039;50.830;4.730;2023-08-24T00:15:39;21.20;99.90
27619;DHT22;15039;50.830;4.730;2023-08-24T00:18:06;21.00;99.90
27619;DHT22;15039;50.830;4.730;2023-08-24T00:20:32;20.90;99.90
27619;DHT22;15039;50.830;4.730;2023-08-24T00:22:58;20.80;99.90
27619;DHT22;15039;50.830;4.730;2023-08-24T00:25:24;20.70;99.90
27619;DHT22;15039;50.830;4.730;2023-08-24T00:27:52;20.70;99.90
27619;DHT22;15039;50.830;4.730;2023-08-24T00:30:18;20.70;99.90
27619;DHT22;15039;50.830;4.730;2023-08-24T00:32:45;20.70;99.90
27619;DHT22;15039;50.830;4.730;2023-08-24T00:35:11;20.70;99.90
27619;DHT22;15039;50.830;4.730;2023-08-24T00:37:38;20.70;99.90
27619;DHT22;15039;50.830;4.730;2023-08-24T00:40:06;20.70;99.90
27619;DHT22;15039;50.830;4.730;2023-08-24T00:42:42;20.60;99.90
27619;DHT22;15039;50.830;4.730;2023-08-24T00:45:10;20.60;99.90
27619;DHT22;15039;50.830;4.730;2023-08-24T00:47:38;20.60;99.90
27619;DHT22;15039;50.830;4.730;2023-08-24T00:50:06;20.80;99.90
27619;DHT22;15039;50.830;4.730;2023-08-24T00:52:32;20.70;99.90
27619;DHT22;15039;50.830;4.730;2023-08-24T00:55:01;20.70;99.90
27619;DHT22;15039;50.830;4.730;2023-08-24T00:57:28;20.80;99.90
27619;DHT22;15039;50.830;4.730;2023-08-24T00:59:55;20.80;99.90
27619;DHT22;15039;50.830;4.730;2023-08-24T01:02:21;20.80;99.90
27619;DHT22;15039;50.830;4.730;2023-08-24T01:04:47;20.70;99.90
27619;DHT22;15039;50.830;4.730;2023-08-24T01:07:14;20.90;99.90
27619;DHT22;15039;50.830;4.730;2023-08-24T01:09:41;20.80;99.90
27619;DHT22;15039;50.830;4.730;2023-08-24T01:17:14;20.40;99.90
27619;DHT22;15039;50.830;4.730;2023-08-24T01:19:44;20.40;99.90
27619;DHT22;15039;50.830;4.730;2023-08-24T01:27:31;20.50;99.90
27619;DHT22;15039;50.830;4.730;2023-08-24T01:29:58;20.50;99.90
27619;DHT22;15039;50.830;4.730;2023-08-24T01:32:24;20.60;99.90
27619;DHT22;15039;50.830;4.730;2023-08-24T01:34:50;20.60;99.90
27619;DHT22;15039;50.830;4.730;2023-08-24T01:37:16;20.60;99.90
27619;DHT22;15039;50.830;4.730;2023-08-24T01:42:55;20.80;99.90
27619;DHT22;15039;50.830;4.730;2023-08-24T01:45:24;20.90;99.90
27619;DHT22;15039;50.830;4.730;2023-08-24T01:47:52;20.80;99.90
27619;DHT22;15039;50.830;4.730;2023-08-24T01:50:19;20.80;99.90
27619;DHT22;15039;50.830;4.730;2023-08-24T01:52:45;20.80;99.90
27619;DHT22;15039;50.830;4.730;2023-08-24T01:55:17;20.80;99.90
27619;DHT22;15039;50.830;4.730;2023-08-24T01:57:43;20.80;99.90
27619;DHT22;15039;50.830;4.730;2023-08-24T02:00:10;20.90;99.90
27619;DHT22;15039;50.830;4.730;2023-08-24T02:02:36;20.90;99.90
27619;DHT22;15039;50.830;4.730;2023-08-24T02:05:02;21.00;99.90
27619;DHT22;15039;50.830;4.730;2023-08-24T02:07:28;21.00;99.90
27619;DHT22;15039;50.830;4.730;2023-08-24T02:09:54;21.00;99.90
27619;DHT22;15039;50.830;4.730;2023-08-24T02:12:19;21.00;99.90
27619;DHT22;15039;50.830;4.730;2023-08-24T02:14:45;21.00;99.90
27619;DHT22;15039;50.830;4.730;2023-08-24T02:17:11;21.00;99.90
27619;DHT22;15039;50.830;4.730;2023-08-24T02:19:37;21.00;99.90
27619;DHT22;15039;50.830;4.730;2023-08-24T02:22:02;21.00;99.90
27619;DHT22;15039;50.830;4.730;2023-08-24T02:24:28;21.00;99.90
27619;DHT22;15039;50.830;4.730;2023-08-24T02:26:55;20.90;99.90
27619;DHT22;15039;50.830;4.730;2023-08-24T02:29:20;20.90;99.90
27619;DHT22;15039;50.830;4.730;2023-08-24T02:31:48;21.10;99.90
27619;DHT22;15039;50.830;4.730;2023-08-24T02:34:14;21.10;99.90
27619;DHT22;15039;50.830;4.730;2023-08-24T02:36:40;21.10;99.90
27619;DHT22;15039;50.830;4.730;2023-08-24T02:39:05;20.80;99.90
27619;DHT22;15039;50.830;4.730;2023-08-24T02:41:31;20.60;99.90
27619;DHT22;15039;50.830;4.730;2023-08-24T02:43:57;20.40;99.90
27619;DHT22;15039;50.830;4.730;2023-08-24T02:46:22;20.40;99.90
27619;DHT22;15039;50.830;4.730;2023-08-24T02:48:48;20.30;99.90
27619;DHT22;15039;50.830;4.730;2023-08-24T02:51:14;20.30;99.90
27619;DHT22;15039;50.830;4.730;2023-08-24T02:53:39;20.30;99.90
27619;DHT22;15039;50.830;4.730;2023-08-24T02:56:05;20.30;99.90
27619;DHT22;15039;50.830;4.730;2023-08-24T02:58:31;20.30;99.90
27619;DHT22;15039;50.830;4.730;2023-08-24T03:00:59;20.10;99.90
27619;DHT22;15039;50.830;4.730;2023-08-24T03:03:30;20.00;99.90
27619;DHT22;15039;50.830;4.730;2023-08-24T03:05:57;20.00;99.90
27619;DHT22;15039;50.830;4.730;2023-08-24T03:08:23;20.00;99.90
27619;DHT22;15039;50.830;4.730;2023-08-24T03:10:49;20.20;99.90
27619;DHT22;15039;50.830;4.730;2023-08-24T03:13:15;20.40;99.90
27619;DHT22;15039;50.830;4.730;2023-08-24T03:15:40;20.30;99.90
27619;DHT22;15039;50.830;4.730;2023-08-24T03:18:06;20.10;99.90
27619;DHT22;15039;50.830;4.730;2023-08-24T03:20:32;20.00;99.90
27619;DHT22;15039;50.830;4.730;2023-08-24T03:22:58;20.00;99.90
27619;DHT22;15039;50.830;4.730;2023-08-24T03:25:24;19.90;99.90
27619;DHT22;15039;50.830;4.730;2023-08-24T03:27:50;19.90;99.90
27619;DHT22;15039;50.830;4.730;2023-08-24T03:30:16;19.90;99.90
27619;DHT22;15039;50.830;4.730;2023-08-24T03:32:41;19.80;99.90
27619;DHT22;15039;50.830;4.730;2023-08-24T03:35:07;19.90;99.90
27619;DHT22;15039;50.830;4.730;2023-08-24T03:37:33;20.00;99.90
27619;DHT22;15039;50.830;4.730;2023-08-24T03:39:59;20.10;99.90
27619;DHT22;15039;50.830;4.730;2023-08-24T03:42:25;20.00;99.90
27619;DHT22;15039;50.830;4.730;2023-08-24T03:44:50;19.90;99.90
27619;DHT22;15039;50.830;4.730;2023-08-24T03:47:16;19.90;99.90
27619;DHT22;15039;50.830;4.730;2023-08-24T03:49:43;19.80;99.90
27619;DHT22;15039;50.830;4.730;2023-08-24T03:52:09;19.70;99.90
27619;DHT22;15039;50.830;4.730;2023-08-24T03:54:34;19.60;99.90
27619;DHT22;15039;50.830;4.730;2023-08-24T03:57:01;19.60;99.90
27619;DHT22;15039;50.830;4.730;2023-08-24T03:59:27;19.40;99.90
27619;DHT22;15039;50.830;4.730;2023-08-24T04:01:53;19.40;99.90
27619;DHT22;15039;50.830;4.730;2023-08-24T04:04:20;19.20;99.90
27619;DHT22;15039;50.830;4.730;2023-08-24T04:06:45;19.20;99.90
27619;DHT22;15039;50.830;4.730;2023-08-24T04:09:11;19.20;99.90
27619;DHT22;15039;50.830;4.730;2023-08-24T04:11:37;19.30;99.90
27619;DHT22;15039;50.830;4.730;2023-08-24T04:14:02;19.40;99.90
27619;DHT22;15039;50.830;4.730;2023-08-24T04:16:28;19.50;99.90
27619;DHT22;15039;50.830;4.730;2023-08-24T04:18:53;19.50;99.90
27619;DHT22;15039;50.830;4.730;2023-08-24T04:21:19;19.50;99.90
27619;DHT22;15039;50.830;4.730;2023-08-24T04:23:45;19.70;99.90
27619;DHT22;15039;50.830;4.730;2023-08-24T04:26:14;19.80;99.90
27619;DHT22;15039;50.830;4.730;2023-08-24T04:28:39;20.00;99.90
27619;DHT22;15039;50.830;4.730;2023-08-24T04:31:05;20.10;99.90
27619;DHT22;15039;50.830;4.730;2023-08-24T04:33:31;20.30;99.90
27619;DHT22;15039;50.830;4.730;2023-08-24T04:35:57;20.20;99.90
27619;DHT22;15039;50.830;4.730;2023-08-24T04:38:23;20.20;99.90
27619;DHT22;15039;50.830;4.730;2023-08-24T04:40:51;20.30;99.90
27619;DHT22;15039;50.830;4.730;2023-08-24T04:43:18;20.20;99.90
27619;DHT22;15039;50.830;4.730;2023-08-24T04:45:48;20.00;99.90
27619;DHT22;15039;50.830;4.730;2023-08-24T04:48:15;20.00;99.90
27619;DHT22;15039;50.830;4.730;2023-08-24T04:50:44;20.00;99.90
27619;DHT22;15039;50.830;4.730;2023-08-24T04:53:13;20.00;99.90
27619;DHT22;15039;50.830;4.730;2023-08-24T04:55:41;19.80;99.90
27619;DHT22;15039;50.830;4.730;2023-08-24T04:58:10;19.80;99.90
27619;DHT22;15039;50.830;4.730;2023-08-24T05:00:37;19.80;99.90
27619;DHT22;15039;50.830;4.730;2023-08-24T05:03:04;19.70;99.90
27619;DHT22;15039;50.830;4.730;2023-08-24T05:05:31;19.80;99.90
27619;DHT22;15039;50.830;4.730;2023-08-24T05:07:57;19.80;99.90
27619;DHT22;15039;50.830;4.730;2023-08-24T05:10:24;19.90;99.90
27619;DHT22;15039;50.830;4.730;2023-08-24T05:12:49;20.00;99.90
27619;DHT22;15039;50.830;4.730;2023-08-24T05:15:15;20.10;99.90
27619;DHT22;15039;50.830;4.730;2023-08-24T05:17:41;20.20;99.90
27619;DHT22;15039;50.830;4.730;2023-08-24T05:20:08;20.30;99.90
27619;DHT22;15039;50.830;4.730;2023-08-24T05:22:38;20.40;99.90
27619;DHT22;15039;50.830;4.730;2023-08-24T05:25:04;20.40;99.90
27619;DHT22;15039;50.830;4.730;2023-08-24T05:27:30;20.40;99.90
27619;DHT22;15039;50.830;4.730;2023-08-24T05:29:56;20.40;99.90
27619;DHT22;15039;50.830;4.730;2023-08-24T05:32:24;20.50;99.90
27619;DHT22;15039;50.830;4.730;2023-08-24T05:34:51;20.50;99.90
27619;DHT22;15039;50.830;4.730;2023-08-24T05:37:16;20.40;99.90
27619;DHT22;15039;50.830;4.730;2023-08-24T05:39:42;20.40;99.90
27619;DHT22;15039;50.830;4.730;2023-08-24T05:42:08;20.50;99.90
27619;DHT22;15039;50.830;4.730;2023-08-24T05:44:34;20.40;99.90
27619;DHT22;15039;50.830;4.730;2023-08-24T05:47:00;20.50;99.90
27619;DHT22;15039;50.830;4.730;2023-08-24T05:49:26;20.60;99.90
27619;DHT22;15039;50.830;4.730;2023-08-24T05:51:52;20.60;99.90
27619;DHT22;15039;50.830;4.730;2023-08-24T05:54:18;20.70;99.90
27619;DHT22;15039;50.830;4.730;2023-08-24T05:56:45;20.80;99.90
27619;DHT22;15039;50.830;4.730;2023-08-24T05:59:10;20.90;99.90
27619;DHT22;15039;50.830;4.730;2023-08-24T06:01:36;20.80;99.90
27619;DHT22;15039;50.830;4.730;2023-08-24T06:04:05;20.90;99.90
27619;DHT22;15039;50.830;4.730;2023-08-24T06:06:31;20.80;99.90
27619;DHT22;15039;50.830;4.730;2023-08-24T06:08:57;20.90;99.90
27619;DHT22;15039;50.830;4.730;2023-08-24T06:11:22;21.00;99.90
27619;DHT22;15039;50.830;4.730;2023-08-24T06:13:48;21.10;99.90
27619;DHT22;15039;50.830;4.730;2023-08-24T06:16:14;21.30;99.90
27619;DHT22;15039;50.830;4.730;2023-08-24T06:18:40;21.30;99.90
27619;DHT22;15039;50.830;4.730;2023-08-24T06:21:06;21.30;99.90
27619;DHT22;15039;50.830;4.730;2023-08-24T06:23:35;21.30;99.90
27619;DHT22;15039;50.830;4.730;2023-08-24T06:26:07;21.50;99.90
27619;DHT22;15039;50.830;4.730;2023-08-24T06:28:37;21.50;99.90
27619;DHT22;15039;50.830;4.730;2023-08-24T06:31:04;21.70;99.90
27619;DHT22;15039;50.830;4.730;2023-08-24T06:33:37;21.70;99.90
27619;DHT22;15039;50.830;4.730;2023-08-24T06:36:06;21.80;99.90
27619;DHT22;15039;50.830;4.730;2023-08-24T06:38:35;22.00;99.90
27619;DHT22;15039;50.830;4.730;2023-08-24T06:41:02;22.20;99.90
27619;DHT22;15039;50.830;4.730;2023-08-24T06:43:29;22.30;99.90
27619;DHT22;15039;50.830;4.730;2023-08-24T06:45:56;22.50;99.90
27619;DHT22;15039;50.830;4.730;2023-08-24T06:48:48;22.70;99.90
27619;DHT22;15039;50.830;4.730;2023-08-24T06:51:16;23.00;99.90
27619;DHT22;15039;50.830;4.730;2023-08-24T06:53:58;23.20;99.90
27619;DHT22;15039;50.830;4.730;2023-08-24T06:56:30;23.40;99.90
27619;DHT22;15039;50.830;4.730;2023-08-24T06:59:06;23.50;99.90
27619;DHT22;15039;50.830;4.730;2023-08-24T07:01:45;23.70;99.90
27619;DHT22;15039;50.830;4.730;2023-08-24T07:04:15;23.90;99.90
27619;DHT22;15039;50.830;4.730;2023-08-24T07:07:02;24.10;99.90
27619;DHT22;15039;50.830;4.730;2023-08-24T07:09:38;24.20;99.90
27619;DHT22;15039;50.830;4.730;2023-08-24T07:12:11;24.30;99.90
27619;DHT22;15039;50.830;4.730;2023-08-24T07:14:54;24.30;99.90
27619;DHT22;15039;50.830;4.730;2023-08-24T07:17:31;24.40;99.90
27619;DHT22;15039;50.830;4.730;2023-08-24T07:20:16;24.40;99.90
27619;DHT22;15039;50.830;4.730;2023-08-24T07:22:49;24.50;99.90
27619;DHT22;15039;50.830;4.730;2023-08-24T07:25:25;24.70;99.90
27619;DHT22;15039;50.830;4.730;2023-08-24T07:27:55;24.90;99.90
27619;DHT22;15039;50.830;4.730;2023-08-24T07:30:31;25.10;99.90
27619;DHT22;15039;50.830;4.730;2023-08-24T07:33:08;25.30;99.90
27619;DHT22;15039;50.830;4.730;2023-08-24T07:35:37;25.60;99.90
27619;DHT22;15039;50.830;4.730;2023-08-24T07:38:34;25.80;99.90
27619;DHT22;15039;50.830;4.730;2023-08-24T07:41:34;25.90;99.90
27619;DHT22;15039;50.830;4.730;2023-08-24T07:44:06;26.00;99.90
27619;DHT22;15039;50.830;4.730;2023-08-24T07:47:08;26.00;99.90
27619;DHT22;15039;50.830;4.730;2023-08-24T07:49:48;26.20;99.90
27619;DHT22;15039;50.830;4.730;2023-08-24T07:52:22;26.30;99.90
27619;DHT22;15039;50.830;4.730;2023-08-24T07:55:06;26.40;99.90
27619;DHT22;15039;50.830;4.730;2023-08-24T07:57:36;26.50;99.90
27619;DHT22;15039;50.830;4.730;2023-08-24T08:02:45;26.60;99.90
27619;DHT22;15039;50.830;4.730;2023-08-24T08:08:04;26.80;99.90
27619;DHT22;15039;50.830;4.730;2023-08-24T08:10:30;26.80;99.90
27619;DHT22;15039;50.830;4.730;2023-08-24T08:12:58;26.90;99.90
27619;DHT22;15039;50.830;4.730;2023-08-24T08:15:26;27.10;99.90
27619;DHT22;15039;50.830;4.730;2023-08-24T08:17:52;27.00;99.90
27619;DHT22;15039;50.830;4.730;2023-08-24T08:20:21;27.20;99.90
27619;DHT22;15039;50.830;4.730;2023-08-24T08:22:48;27.10;99.90
27619;DHT22;15039;50.830;4.730;2023-08-24T08:25:17;27.20;99.90
27619;DHT22;15039;50.830;4.730;2023-08-24T08:27:52;27.20;99.90
27619;DHT22;15039;50.830;4.730;2023-08-24T08:36:41;27.30;99.90
27619;DHT22;15039;50.830;4.730;2023-08-24T08:39:14;27.40;99.90
27619;DHT22;15039;50.830;4.730;2023-08-24T08:41:44;27.40;99.90
27619;DHT22;15039;50.830;4.730;2023-08-24T08:44:21;27.40;99.90
27619;DHT22;15039;50.830;4.730;2023-08-24T08:46:49;27.50;99.90
27619;DHT22;15039;50.830;4.730;2023-08-24T08:49:19;27.40;99.90
27619;DHT22;15039;50.830;4.730;2023-08-24T08:51:45;27.40;99.90
27619;DHT22;15039;50.830;4.730;2023-08-24T08:54:13;27.50;99.90
27619;DHT22;15039;50.830;4.730;2023-08-24T08:56:42;27.60;99.90
27619;DHT22;15039;50.830;4.730;2023-08-24T08:59:09;27.70;99.90
27619;DHT22;15039;50.830;4.730;2023-08-24T09:01:40;27.70;99.90
27619;DHT22;15039;50.830;4.730;2023-08-24T09:04:13;27.70;99.90
27619;DHT22;15039;50.830;4.730;2023-08-24T09:06:55;27.70;99.90
27619;DHT22;15039;50.830;4.730;2023-08-24T09:09:37;27.80;99.90
27619;DHT22;15039;50.830;4.730;2023-08-24T09:12:06;27.90;99.90
27619;DHT22;15039;50.830;4.730;2023-08-24T09:25:57;27.40;99.90
27619;DHT22;15039;50.830;4.730;2023-08-24T09:31:50;27.20;99.90
27619;DHT22;15039;50.830;4.730;2023-08-24T09:34:27;26.80;99.90
27619;DHT22;15039;50.830;4.730;2023-08-24T10:02:21;24.50;99.90
27619;DHT22;15039;50.830;4.730;2023-08-24T10:33:30;22.20;99.90
27619;DHT22;15039;50.830;4.730;2023-08-24T10:41:19;22.20;99.90
27619;DHT22;15039;50.830;4.730;2023-08-24T10:44:06;22.20;99.90
27619;DHT22;15039;50.830;4.730;2023-08-24T10:56:54;22.30;99.90
27619;DHT22;15039;50.830;4.730;2023-08-24T10:59:34;22.50;99.90
27619;DHT22;15039;50.830;4.730;2023-08-24T11:02:21;22.70;99.90
27619;DHT22;15039;50.830;4.730;2023-08-24T11:07:31;22.60;99.90
27619;DHT22;15039;50.830;4.730;2023-08-24T11:16:03;23.10;99.90
27619;DHT22;15039;50.830;4.730;2023-08-24T11:18:56;23.40;99.90
27619;DHT22;15039;50.830;4.730;2023-08-24T11:21:47;23.60;99.90
27619;DHT22;15039;50.830;4.730;2023-08-24T11:24:39;23.80;99.90
27619;DHT22;15039;50.830;4.730;2023-08-24T11:30:06;24.10;99.90
27619;DHT22;15039;50.830;4.730;2023-08-24T11:33:15;24.20;99.90
27619;DHT22;15039;50.830;4.730;2023-08-24T11:49:21;24.70;99.90
27619;DHT22;15039;50.830;4.730;2023-08-24T11:57:22;24.60;99.90
27619;DHT22;15039;50.830;4.730;2023-08-24T11:59:55;24.60;99.90
27619;DHT22;15039;50.830;4.730;2023-08-24T12:02:27;24.50;99.90
27619;DHT22;15039;50.830;4.730;2023-08-24T12:04:59;24.30;99.90
27619;DHT22;15039;50.830;4.730;2023-08-24T12:07:35;24.30;99.90
27619;DHT22;15039;50.830;4.730;2023-08-24T12:10:10;24.20;99.90
27619;DHT22;15039;50.830;4.730;2023-08-24T12:12:41;24.20;99.90
27619;DHT22;15039;50.830;4.730;2023-08-24T12:15:21;24.20;99.90
27619;DHT22;15039;50.830;4.730;2023-08-24T12:17:51;24.20;99.90
27619;DHT22;15039;50.830;4.730;2023-08-24T12:20:27;24.00;99.90
27619;DHT22;15039;50.830;4.730;2023-08-24T12:22:58;24.00;99.90
27619;DHT22;15039;50.830;4.730;2023-08-24T12:25:30;23.80;99.90
27619;DHT22;15039;50.830;4.730;2023-08-24T12:28:13;23.70;99.90
27619;DHT22;15039;50.830;4.730;2023-08-24T12:30:59;23.50;99.90
27619;DHT22;15039;50.830;4.730;2023-08-24T12:33:31;23.40;99.90
27619;DHT22;15039;50.830;4.730;2023-08-24T12:36:00;23.20;99.90
27619;DHT22;15039;50.830;4.730;2023-08-24T12:38:48;23.10;99.90
27619;DHT22;15039;50.830;4.730;2023-08-24T12:41:15;23.00;99.90
27619;DHT22;15039;50.830;4.730;2023-08-24T12:43:46;23.00;99.90
27619;DHT22;15039;50.830;4.730;2023-08-24T12:49:05;22.70;99.90
27619;DHT22;15039;50.830;4.730;2023-08-24T13:43:21;21.20;99.90
27619;DHT22;15039;50.830;4.730;2023-08-24T13:45:55;21.10;99.90
27619;DHT22;15039;50.830;4.730;2023-08-24T13:48:24;21.10;99.90
27619;DHT22;15039;50.830;4.730;2023-08-24T13:51:23;21.10;99.90
27619;DHT22;15039;50.830;4.730;2023-08-24T13:54:00;21.10;99.90
27619;DHT22;15039;50.830;4.730;2023-08-24T13:56:35;21.20;99.90
27619;DHT22;15039;50.830;4.730;2023-08-24T13:59:28;21.20;99.90
27619;DHT22;15039;50.830;4.730;2023-08-24T14:01:57;21.30;99.90
27619;DHT22;15039;50.830;4.730;2023-08-24T14:07:30;21.40;99.90
27619;DHT22;15039;50.830;4.730;2023-08-24T14:10:15;21.40;99.90
27619;DHT22;15039;50.830;4.730;2023-08-24T14:12:52;21.50;99.90
27619;DHT22;15039;50.830;4.730;2023-08-24T14:15:32;21.60;99.90
27619;DHT22;15039;50.830;4.730;2023-08-24T14:18:02;21.60;99.90
27619;DHT22;15039;50.830;4.730;2023-08-24T14:20:30;21.60;99.90
27619;DHT22;15039;50.830;4.730;2023-08-24T14:25:48;21.70;99.90
27619;DHT22;15039;50.830;4.730;2023-08-24T14:28:52;21.60;99.90
27619;DHT22;15039;50.830;4.730;2023-08-24T14:32:28;21.50;99.90
27619;DHT22;15039;50.830;4.730;2023-08-24T14:35:06;21.70;99.90
27619;DHT22;15039;50.830;4.730;2023-08-24T14:38:02;21.60;99.90
27619;DHT22;15039;50.830;4.730;2023-08-24T14:44:07;21.90;99.90
27619;DHT22;15039;50.830;4.730;2023-08-24T14:53:10;22.30;99.90
27619;DHT22;15039;50.830;4.730;2023-08-24T14:56:04;22.30;99.90
27619;DHT22;15039;50.830;4.730;2023-08-24T14:58:39;22.20;99.90
27619;DHT22;15039;50.830;4.730;2023-08-24T15:01:07;22.40;99.90
27619;DHT22;15039;50.830;4.730;2023-08-24T15:03:35;22.50;99.90
27619;DHT22;15039;50.830;4.730;2023-08-24T15:06:09;22.60;99.90
27619;DHT22;15039;50.830;4.730;2023-08-24T15:08:35;22.70;99.90
27619;DHT22;15039;50.830;4.730;2023-08-24T15:11:02;22.70;99.90
27619;DHT22;15039;50.830;4.730;2023-08-24T15:13:29;22.80;99.90
27619;DHT22;15039;50.830;4.730;2023-08-24T15:16:00;22.80;99.90
27619;DHT22;15039;50.830;4.730;2023-08-24T15:18:41;22.80;99.90
27619;DHT22;15039;50.830;4.730;2023-08-24T15:21:07;22.80;99.90
27619;DHT22;15039;50.830;4.730;2023-08-24T15:23:33;22.90;99.90
27619;DHT22;15039;50.830;4.730;2023-08-24T15:26:03;23.00;99.90
27619;DHT22;15039;50.830;4.730;2023-08-24T15:31:41;23.20;99.90
27619;DHT22;15039;50.830;4.730;2023-08-24T15:34:06;23.20;99.90
27619;DHT22;15039;50.830;4.730;2023-08-24T15:36:34;23.20;99.90
27619;DHT22;15039;50.830;4.730;2023-08-24T15:39:02;23.40;99.90
27619;DHT22;15039;50.830;4.730;2023-08-24T15:41:32;23.50;99.90
27619;DHT22;15039;50.830;4.730;2023-08-24T15:43:58;23.40;99.90
27619;DHT22;15039;50.830;4.730;2023-08-24T15:46:25;23.40;99.90
27619;DHT22;15039;50.830;4.730;2023-08-24T15:48:52;23.40;99.90
27619;DHT22;15039;50.830;4.730;2023-08-24T15:51:24;23.50;99.90
27619;DHT22;15039;50.830;4.730;2023-08-24T15:53:51;23.60;99.90
27619;DHT22;15039;50.830;4.730;2023-08-24T15:56:25;23.60;99.90
27619;DHT22;15039;50.830;4.730;2023-08-24T15:59:45;23.80;99.90
27619;DHT22;15039;50.830;4.730;2023-08-24T16:02:11;23.90;99.90
27619;DHT22;15039;50.830;4.730;2023-08-24T16:04:40;24.00;99.90
27619;DHT22;15039;50.830;4.730;2023-08-24T16:07:39;24.10;99.90
27619;DHT22;15039;50.830;4.730;2023-08-24T16:10:13;24.10;99.90
27619;DHT22;15039;50.830;4.730;2023-08-24T16:12:52;24.20;99.90
27619;DHT22;15039;50.830;4.730;2023-08-24T16:15:28;24.20;99.90
27619;DHT22;15039;50.830;4.730;2023-08-24T16:18:01;24.30;99.90
27619;DHT22;15039;50.830;4.730;2023-08-24T16:20:27;24.50;99.90
27619;DHT22;15039;50.830;4.730;2023-08-24T16:29:03;25.10;99.90
27619;DHT22;15039;50.830;4.730;2023-08-24T16:31:45;25.50;99.90
27619;DHT22;15039;50.830;4.730;2023-08-24T16:36:42;25.80;99.90
27619;DHT22;15039;50.830;4.730;2023-08-24T16:41:55;25.70;99.90
27619;DHT22;15039;50.830;4.730;2023-08-24T16:44:47;25.60;99.90
27619;DHT22;15039;50.830;4.730;2023-08-24T16:47:39;25.60;99.90
27619;DHT22;15039;50.830;4.730;2023-08-24T16:50:16;25.60;99.90
27619;DHT22;15039;50.830;4.730;2023-08-24T16:52:52;25.60;99.90
27619;DHT22;15039;50.830;4.730;2023-08-24T16:55:21;25.60;99.90
27619;DHT22;15039;50.830;4.730;2023-08-24T16:57:49;25.60;99.90
27619;DHT22;15039;50.830;4.730;2023-08-24T17:00:15;25.70;99.90
27619;DHT22;15039;50.830;4.730;2023-08-24T17:03:31;25.70;99.90
27619;DHT22;15039;50.830;4.730;2023-08-24T17:06:06;25.90;99.90
27619;DHT22;15039;50.830;4.730;2023-08-24T17:08:33;26.40;99.90
27619;DHT22;15039;50.830;4.730;2023-08-24T17:14:24;27.40;99.90
27619;DHT22;15039;50.830;4.730;2023-08-24T17:16:54;28.10;99.90
27619;DHT22;15039;50.830;4.730;2023-08-24T17:19:19;28.70;99.90
27619;DHT22;15039;50.830;4.730;2023-08-24T17:21:48;28.80;99.90
27619;DHT22;15039;50.830;4.730;2023-08-24T17:24:16;29.00;99.90
27619;DHT22;15039;50.830;4.730;2023-08-24T17:26:45;29.00;99.90
27619;DHT22;15039;50.830;4.730;2023-08-24T17:29:14;28.90;99.90
27619;DHT22;15039;50.830;4.730;2023-08-24T17:31:44;29.20;99.90
27619;DHT22;15039;50.830;4.730;2023-08-24T17:34:16;29.10;99.90
27619;DHT22;15039;50.830;4.730;2023-08-24T17:36:42;29.30;99.90
27619;DHT22;15039;50.830;4.730;2023-08-24T17:39:08;29.20;99.90
27619;DHT22;15039;50.830;4.730;2023-08-24T17:41:36;29.00;99.90
27619;DHT22;15039;50.830;4.730;2023-08-24T17:44:06;28.80;99.90
27619;DHT22;15039;50.830;4.730;2023-08-24T17:46:35;28.20;99.90
27619;DHT22;15039;50.830;4.730;2023-08-24T17:49:05;27.60;99.90
27619;DHT22;15039;50.830;4.730;2023-08-24T17:51:30;27.10;99.90
27619;DHT22;15039;50.830;4.730;2023-08-24T17:53:57;26.60;99.90
27619;DHT22;15039;50.830;4.730;2023-08-24T17:56:26;26.20;99.90
27619;DHT22;15039;50.830;4.730;2023-08-24T17:58:54;25.90;99.90
27619;DHT22;15039;50.830;4.730;2023-08-24T18:01:28;25.60;99.90
27619;DHT22;15039;50.830;4.730;2023-08-24T18:04:17;25.40;99.90
27619;DHT22;15039;50.830;4.730;2023-08-24T18:06:51;25.10;99.90
27619;DHT22;15039;50.830;4.730;2023-08-24T18:09:20;24.90;99.90
27619;DHT22;15039;50.830;4.730;2023-08-24T18:11:52;25.00;99.90
27619;DHT22;15039;50.830;4.730;2023-08-24T18:14:20;24.70;99.90
27619;DHT22;15039;50.830;4.730;2023-08-24T18:16:50;24.60;99.90
27619;DHT22;15039;50.830;4.730;2023-08-24T18:19:20;24.40;99.90
27619;DHT22;15039;50.830;4.730;2023-08-24T18:21:47;24.40;99.90
27619;DHT22;15039;50.830;4.730;2023-08-24T18:24:13;24.30;99.90
27619;DHT22;15039;50.830;4.730;2023-08-24T18:26:44;24.10;99.90
27619;DHT22;15039;50.830;4.730;2023-08-24T18:29:12;24.10;99.90
27619;DHT22;15039;50.830;4.730;2023-08-24T18:31:38;24.10;99.90
27619;DHT22;15039;50.830;4.730;2023-08-24T18:34:05;24.00;99.90
27619;DHT22;15039;50.830;4.730;2023-08-24T18:36:35;23.90;99.90
27619;DHT22;15039;50.830;4.730;2023-08-24T18:39:03;23.90;99.90
27619;DHT22;15039;50.830;4.730;2023-08-24T18:41:31;23.80;99.90
27619;DHT22;15039;50.830;4.730;2023-08-24T18:43:58;23.70;99.90
27619;DHT22;15039;50.830;4.730;2023-08-24T18:46:29;23.60;99.90
27619;DHT22;15039;50.830;4.730;2023-08-24T18:48:56;23.50;99.90
27619;DHT22;15039;50.830;4.730;2023-08-24T18:51:24;23.40;99.90
27619;DHT22;15039;50.830;4.730;2023-08-24T18:53:50;23.30;99.90
27619;DHT22;15039;50.830;4.730;2023-08-24T18:56:17;23.30;99.90
27619;DHT22;15039;50.830;4.730;2023-08-24T18:58:47;23.10;99.90
27619;DHT22;15039;50.830;4.730;2023-08-24T19:01:15;23.00;99.90
27619;DHT22;15039;50.830;4.730;2023-08-24T19:03:42;22.90;99.90
27619;DHT22;15039;50.830;4.730;2023-08-24T19:06:08;22.80;99.90
27619;DHT22;15039;50.830;4.730;2023-08-24T19:08:34;22.70;99.90
27619;DHT22;15039;50.830;4.730;2023-08-24T19:11:00;22.70;99.90
27619;DHT22;15039;50.830;4.730;2023-08-24T19:13:26;22.70;99.90
27619;DHT22;15039;50.830;4.730;2023-08-24T19:15:58;22.70;99.90
27619;DHT22;15039;50.830;4.730;2023-08-24T19:18:24;22.70;99.90
27619;DHT22;15039;50.830;4.730;2023-08-24T19:20:54;22.70;99.90
27619;DHT22;15039;50.830;4.730;2023-08-24T19:23:22;22.60;99.90
27619;DHT22;15039;50.830;4.730;2023-08-24T19:26:08;22.60;99.90
27619;DHT22;15039;50.830;4.730;2023-08-24T19:28:39;22.50;99.90
27619;DHT22;15039;50.830;4.730;2023-08-24T19:31:17;22.40;99.90
27619;DHT22;15039;50.830;4.730;2023-08-24T19:33:44;22.40;99.90
27619;DHT22;15039;50.830;4.730;2023-08-24T19:36:12;22.40;99.90
27619;DHT22;15039;50.830;4.730;2023-08-24T19:38:39;22.40;99.90
27619;DHT22;15039;50.830;4.730;2023-08-24T19:41:06;22.30;99.90